Time;durP1;ratioP1;P1;durP2;ratioP2;P2;SDS_P1;SDS_P2;PMS_P1;PMS_P2;Temp;Humidity;BMP_temperature;BMP_pressure;BME280_temperature;BME280_humidity;BME280_pressure;Samples;Min_cycle;Max_cycle;Signal;HPM_P1;HPM_P2
2022/01/31 00:01:53;;;;;;;25.33;6.15;;;;;;;0.29;87.57;99640.03;5013063;28;20030;-59
2022/01/31 00:07:41;;;;;;;16.08;5.82;;;;;;;0.16;89.18;99614.16;5012680;28;20076;-59
2022/01/31 00:10:09;;;;;;;40.85;7.22;;;;;;;0.15;88.73;99625.72;5012311;28;20022;-59
2022/01/31 00:12:47;;;;;;;17.73;6.05;;;;;;;0.12;89.00;99610.19;5012502;28;20125;-59
2022/01/31 00:15:13;;;;;;;26.58;6.68;;;;;;;0.12;89.14;99607.56;5012045;28;20091;-59
2022/01/31 00:21:00;;;;;;;25.40;6.63;;;;;;;0.18;89.16;99601.66;5012232;28;20048;-59
2022/01/31 00:23:25;;;;;;;21.90;6.60;;;;;;;0.15;88.68;99585.31;5011745;28;20053;-59
2022/01/31 00:25:51;;;;;;;27.25;4.57;;;;;;;0.20;88.43;99568.03;5012292;28;20318;-59
2022/01/31 00:28:16;;;;;;;29.23;5.30;;;;;;;0.17;88.64;99539.34;5012807;28;20060;-59
2022/01/31 00:30:42;;;;;;;29.13;5.25;;;;;;;0.17;89.10;99510.34;5010651;28;20038;-59
2022/01/31 00:33:07;;;;;;;15.18;4.30;;;;;;;0.27;88.35;99509.34;5012122;28;20029;-59
2022/01/31 00:35:33;;;;;;;24.98;5.90;;;;;;;0.24;88.18;99488.59;4994294;28;20046;-59
2022/01/31 00:37:58;;;;;;;26.15;6.47;;;;;;;0.28;88.29;99474.09;5011012;28;20030;-59
2022/01/31 00:40:23;;;;;;;24.95;5.93;;;;;;;0.25;88.16;99430.44;5011772;28;20037;-59
2022/01/31 00:42:49;;;;;;;22.98;5.65;;;;;;;0.26;88.07;99418.91;5011928;28;20046;-59
2022/01/31 00:47:44;;;;;;;22.42;5.22;;;;;;;0.33;87.80;99395.31;5011932;28;20104;-59
2022/01/31 00:50:11;;;;;;;17.40;5.90;;;;;;;0.39;87.81;99376.16;5012048;28;20037;-59
2022/01/31 00:52:38;;;;;;;16.00;5.45;;;;;;;0.37;87.40;99378.13;5012259;28;20109;-59
2022/01/31 00:55:04;;;;;;;31.02;6.30;;;;;;;0.32;87.67;99375.19;5011727;28;20379;-59
2022/01/31 00:57:30;;;;;;;24.60;5.93;;;;;;;0.35;87.47;99351.97;5012740;28;20041;-59
2022/01/31 00:59:55;;;;;;;24.05;6.35;;;;;;;0.42;87.63;99358.19;5010919;28;20030;-59
2022/01/31 01:02:21;;;;;;;22.52;6.07;;;;;;;0.46;87.80;99356.00;5011880;28;20040;-59
2022/01/31 01:04:47;;;;;;;19.98;5.47;;;;;;;0.44;87.89;99352.72;5010732;28;20067;-59
2022/01/31 01:07:14;;;;;;;21.98;5.55;;;;;;;0.41;88.01;99345.16;5011810;28;20045;-59
2022/01/31 01:09:41;;;;;;;25.55;5.70;;;;;;;0.46;87.83;99344.66;5012267;28;20393;-59
2022/01/31 01:12:08;;;;;;;15.43;5.25;;;;;;;0.51;87.94;99348.41;5011771;28;20444;-59
2022/01/31 01:14:33;;;;;;;25.65;6.40;;;;;;;0.52;87.78;99326.28;5012056;28;20037;-59
2022/01/31 01:16:59;;;;;;;19.77;5.95;;;;;;;0.62;87.91;99308.44;5010781;28;20046;-59
2022/01/31 01:19:24;;;;;;;23.17;5.85;;;;;;;0.61;87.20;99285.69;5012155;28;20053;-59
2022/01/31 01:21:49;;;;;;;33.25;5.78;;;;;;;0.75;87.68;99285.88;5011825;28;20456;-59
2022/01/31 01:24:15;;;;;;;25.45;5.85;;;;;;;0.72;86.89;99284.44;5011274;28;20038;-59
2022/01/31 01:26:41;;;;;;;19.85;6.00;;;;;;;0.73;86.84;99278.16;5012177;28;20096;-59
2022/01/31 01:29:07;;;;;;;19.95;5.13;;;;;;;0.69;86.88;99271.59;5011424;28;20037;-59
2022/01/31 01:31:32;;;;;;;22.58;5.50;;;;;;;0.72;87.20;99262.50;5011394;28;20114;-59
2022/01/31 01:33:58;;;;;;;23.40;6.57;;;;;;;0.78;86.84;99248.63;5012560;28;20026;-59
2022/01/31 01:36:23;;;;;;;20.90;5.97;;;;;;;0.67;86.89;99246.41;5014254;28;20550;-59
2022/01/31 01:38:49;;;;;;;21.13;4.88;;;;;;;0.67;86.99;99244.56;5015565;28;20033;-59
2022/01/31 01:41:14;;;;;;;22.45;6.07;;;;;;;0.74;87.56;99234.13;5014944;28;20054;-59
2022/01/31 01:43:40;;;;;;;29.33;6.50;;;;;;;0.71;87.21;99235.31;5015616;28;20036;-59
2022/01/31 01:46:05;;;;;;;24.20;5.80;;;;;;;0.71;87.33;99237.13;5015292;28;20037;-59
2022/01/31 01:48:31;;;;;;;22.17;5.88;;;;;;;0.71;87.57;99237.13;5015516;28;20163;-59
2022/01/31 01:50:57;;;;;;;19.98;4.75;;;;;;;0.74;87.41;99215.66;5015521;28;20034;-59
2022/01/31 01:53:23;;;;;;;23.95;6.63;;;;;;;0.71;87.69;99203.66;4997679;28;20030;-59
2022/01/31 01:55:51;;;;;;;27.58;6.28;;;;;;;0.69;87.79;99207.47;5013846;28;20026;-59
2022/01/31 01:58:17;;;;;;;19.60;6.07;;;;;;;0.79;87.50;99216.75;5015420;28;20364;-59
2022/01/31 02:00:50;;;;;;;27.63;6.55;;;;;;;0.76;87.47;99219.75;4997617;28;20026;-59
2022/01/31 02:03:18;;;;;;;17.30;5.82;;;;;;;0.75;87.88;99222.56;5015002;28;20472;-59
2022/01/31 02:05:43;;;;;;;23.02;6.53;;;;;;;0.77;87.70;99204.75;5014180;28;20078;-59
2022/01/31 02:08:11;;;;;;;31.25;6.45;;;;;;;0.75;88.67;99193.56;5013534;28;20041;-59
2022/01/31 02:10:36;;;;;;;28.75;6.78;;;;;;;0.80;87.96;99194.66;5013551;28;20030;-60
2022/01/31 02:13:05;;;;;;;25.55;6.15;;;;;;;0.83;87.76;99182.94;5014807;28;20033;-59
2022/01/31 02:15:32;;;;;;;17.20;5.43;;;;;;;0.88;87.52;99172.66;5015151;28;20117;-59
2022/01/31 02:17:57;;;;;;;18.80;6.00;;;;;;;0.88;87.49;99158.66;5014933;28;20026;-59
2022/01/31 02:20:23;;;;;;;14.50;4.95;;;;;;;0.95;87.30;99159.53;5014839;28;20479;-59
2022/01/31 02:22:48;;;;;;;26.13;5.72;;;;;;;1.01;87.55;99146.44;5013642;28;20473;-59
2022/01/31 02:25:14;;;;;;;16.05;3.72;;;;;;;1.05;86.99;99134.53;5014451;28;20036;-59
2022/01/31 02:27:40;;;;;;;23.10;6.07;;;;;;;1.07;87.07;99098.22;5014426;28;20038;-59
2022/01/31 02:30:07;;;;;;;28.45;5.78;;;;;;;1.19;86.78;99081.88;5014490;28;20030;-59
2022/01/31 02:32:33;;;;;;;26.08;6.15;;;;;;;1.21;86.55;99067.50;5014753;28;20052;-59
2022/01/31 02:34:58;;;;;;;20.95;5.47;;;;;;;1.27;86.47;99053.56;5013760;28;20030;-59
2022/01/31 02:37:23;;;;;;;17.67;5.03;;;;;;;1.32;86.44;99038.97;5014690;28;20046;-59
2022/01/31 02:39:49;;;;;;;23.48;5.85;;;;;;;1.40;86.06;99044.97;5013179;28;20103;-59
2022/01/31 02:42:15;;;;;;;27.33;5.55;;;;;;;1.47;85.49;99034.44;5012714;28;20543;-59
2022/01/31 02:44:41;;;;;;;18.20;5.47;;;;;;;1.53;85.41;99024.97;5014253;28;20464;-59
2022/01/31 02:47:12;;;;;;;24.25;5.45;;;;;;;1.47;85.84;99011.50;5013194;28;20113;-59
2022/01/31 02:49:47;;;;;;;19.60;5.17;;;;;;;1.47;85.87;99008.03;5014132;28;20029;-59
2022/01/31 02:52:14;;;;;;;21.63;7.00;;;;;;;1.54;86.05;98990.41;5014129;28;20026;-60
2022/01/31 02:54:39;;;;;;;37.47;5.93;;;;;;;1.53;85.90;98972.94;5012960;28;20030;-59
2022/01/31 02:57:05;;;;;;;20.95;5.45;;;;;;;1.56;85.42;98985.78;5014218;28;20041;-59
2022/01/31 02:59:31;;;;;;;21.00;6.75;;;;;;;1.49;85.94;98977.78;5014200;28;20376;-59
2022/01/31 03:01:57;;;;;;;31.30;5.95;;;;;;;1.54;85.78;98960.56;5013787;28;20037;-59
2022/01/31 03:04:23;;;;;;;20.75;5.20;;;;;;;1.61;85.99;98940.28;5012573;28;20026;-59
2022/01/31 03:06:49;;;;;;;18.80;5.82;;;;;;;1.57;85.49;98912.63;5013557;28;20033;-59
2022/01/31 03:09:15;;;;;;;22.73;5.75;;;;;;;1.53;86.39;98908.75;5013678;28;20029;-59
2022/01/31 03:11:41;;;;;;;15.43;5.18;;;;;;;1.57;85.73;98896.78;5029617;28;20045;-59
2022/01/31 03:14:06;;;;;;;33.33;6.00;;;;;;;1.57;86.14;98894.13;5013803;28;20471;-59
2022/01/31 03:16:33;;;;;;;33.53;5.88;;;;;;;1.56;86.14;98897.78;5013524;28;20029;-59
2022/01/31 03:18:59;;;;;;;25.40;4.60;;;;;;;1.56;86.26;98871.38;5012459;28;20072;-59
2022/01/31 03:21:24;;;;;;;20.75;5.68;;;;;;;1.62;86.73;98860.84;5013425;28;20034;-59
2022/01/31 03:23:50;;;;;;;26.67;5.82;;;;;;;1.62;86.91;98849.44;5013691;28;20033;-59
2022/01/31 03:26:17;;;;;;;18.85;5.65;;;;;;;1.68;86.70;98840.78;5013598;28;20037;-59
2022/01/31 03:28:42;;;;;;;21.38;4.47;;;;;;;1.65;86.90;98838.53;5013148;28;20034;-59
2022/01/31 03:31:08;;;;;;;22.30;6.28;;;;;;;1.68;86.89;98831.00;5013444;28;20121;-59
2022/01/31 03:33:33;;;;;;;22.35;6.32;;;;;;;1.69;87.31;98823.91;5013829;28;20022;-59
2022/01/31 03:35:59;;;;;;;23.30;5.95;;;;;;;1.64;87.53;98810.44;5013341;28;20466;-59
2022/01/31 03:38:24;;;;;;;21.45;6.38;;;;;;;1.64;88.04;98810.44;5013153;28;20030;-59
2022/01/31 03:40:50;;;;;;;25.38;6.10;;;;;;;1.63;88.38;98801.72;5013072;28;20376;-59
2022/01/31 03:43:15;;;;;;;30.30;6.20;;;;;;;1.64;88.85;98799.88;5028038;28;20076;-59
2022/01/31 03:45:40;;;;;;;19.33;5.30;;;;;;;1.69;88.69;98781.63;5013022;28;20474;-59
2022/01/31 03:48:07;;;;;;;20.60;6.38;;;;;;;1.60;89.70;98777.50;5012856;28;20367;-59
2022/01/31 03:50:32;;;;;;;25.02;6.28;;;;;;;1.62;89.49;98760.47;5013028;28;20022;-59
2022/01/31 03:52:57;;;;;;;20.88;6.25;;;;;;;1.63;91.10;98758.63;5012724;28;20026;-59
2022/01/31 03:55:23;;;;;;;14.60;5.90;;;;;;;1.58;91.67;98747.84;5012833;28;20049;-59
2022/01/31 03:57:49;;;;;;;22.70;6.70;;;;;;;1.55;92.61;98753.50;5012807;28;20088;-59
2022/01/31 04:00:15;;;;;;;16.55;5.80;;;;;;;1.49;92.98;98753.28;5013069;28;20025;-59
2022/01/31 04:02:40;;;;;;;24.55;5.93;;;;;;;1.40;94.00;98753.63;5012920;28;20055;-59
2022/01/31 04:05:06;;;;;;;23.75;6.15;;;;;;;1.33;94.63;98750.97;5012909;28;20121;-59
2022/01/31 04:07:32;;;;;;;19.73;6.75;;;;;;;1.40;94.96;98761.53;5013423;28;20395;-59
2022/01/31 04:09:57;;;;;;;23.35;7.15;;;;;;;1.28;95.36;98750.72;5012679;28;20026;-59
2022/01/31 04:12:23;;;;;;;19.50;7.32;;;;;;;1.20;95.53;98722.66;5012854;28;20033;-59
2022/01/31 04:14:48;;;;;;;19.13;6.45;;;;;;;1.29;96.23;98734.69;5012751;28;20041;-59
2022/01/31 04:17:14;;;;;;;22.08;7.78;;;;;;;1.21;96.31;98726.91;5012389;28;20045;-59
2022/01/31 04:19:39;;;;;;;17.90;6.25;;;;;;;1.28;96.58;98732.25;4994964;28;20042;-59
2022/01/31 04:22:12;;;;;;;14.27;5.60;;;;;;;1.22;97.03;98728.56;5011133;28;20127;-59
2022/01/31 04:24:40;;;;;;;25.30;6.53;;;;;;;1.21;97.31;98723.47;5012702;28;20038;-59
2022/01/31 04:27:06;;;;;;;16.48;6.50;;;;;;;1.19;97.12;98701.72;5012245;28;20433;-59
2022/01/31 04:29:34;;;;;;;11.43;6.55;;;;;;;1.32;97.02;98715.00;5012252;28;20084;-59
2022/01/31 04:32:00;;;;;;;17.65;5.60;;;;;;;1.26;97.51;98707.88;5012166;28;20104;-59
2022/01/31 04:34:26;;;;;;;23.33;7.75;;;;;;;1.33;97.10;98698.16;5012531;28;20459;-59
2022/01/31 04:36:51;;;;;;;14.48;6.10;;;;;;;1.38;97.15;98706.31;4995094;28;20040;-59
2022/01/31 04:39:18;;;;;;;17.70;7.68;;;;;;;1.34;97.45;98710.34;5013071;28;20030;-59
2022/01/31 04:41:45;;;;;;;19.63;7.30;;;;;;;1.36;97.56;98718.88;5012026;28;20050;-59
2022/01/31 04:44:11;;;;;;;14.95;7.00;;;;;;;1.37;97.22;98720.50;5011035;28;20061;-59
2022/01/31 04:46:36;;;;;;;7.93;3.97;;;;;;;1.30;97.67;98709.13;5010952;28;20460;-59
2022/01/31 04:49:02;;;;;;;30.10;7.60;;;;;;;1.34;97.54;98712.16;5011920;28;20037;-59
2022/01/31 04:51:27;;;;;;;14.55;6.32;;;;;;;1.38;97.60;98689.66;5012203;28;20064;-59
2022/01/31 04:53:53;;;;;;;12.68;6.20;;;;;;;1.41;97.15;98692.69;5012116;28;20506;-59
2022/01/31 04:56:18;;;;;;;24.30;6.38;;;;;;;1.37;97.47;98678.25;5010738;28;20030;-59
2022/01/31 04:58:44;;;;;;;7.90;4.15;;;;;;;1.39;97.31;98678.88;5011797;28;20033;-59
2022/01/31 05:01:09;;;;;;;10.95;5.88;;;;;;;1.42;97.65;98685.59;5011957;28;20067;-59
2022/01/31 05:03:35;;;;;;;14.15;5.70;;;;;;;1.45;97.43;98682.56;5011829;28;20025;-59
2022/01/31 05:06:00;;;;;;;11.77;5.30;;;;;;;1.45;97.54;98675.47;4994194;28;20089;-59
2022/01/31 05:08:28;;;;;;;11.57;5.53;;;;;;;1.43;97.22;98661.63;5009935;28;20033;-59
2022/01/31 05:10:54;;;;;;;9.75;5.40;;;;;;;1.46;98.18;98661.22;5012353;28;20361;-59
2022/01/31 05:13:19;;;;;;;12.75;6.05;;;;;;;1.40;97.57;98669.97;5011756;28;20041;-59
2022/01/31 05:15:45;;;;;;;13.55;5.25;;;;;;;1.42;97.82;98675.88;5010658;28;20448;-59
2022/01/31 05:18:11;;;;;;;10.07;5.07;;;;;;;1.45;97.75;98675.47;5011918;28;20033;-59
2022/01/31 05:20:36;;;;;;;7.40;4.40;;;;;;;1.53;96.80;98660.47;5011702;28;20112;-59
2022/01/31 05:23:03;;;;;;;8.95;5.00;;;;;;;1.64;96.59;98670.44;5010729;28;20033;-59
2022/01/31 05:25:29;;;;;;;8.73;4.22;;;;;;;1.66;96.89;98682.44;5011878;28;20022;-59
2022/01/31 05:27:54;;;;;;;7.65;3.83;;;;;;;1.75;96.47;98677.81;5012063;28;20475;-59
2022/01/31 05:30:22;;;;;;;6.13;3.63;;;;;;;1.89;95.98;98679.44;5010368;28;20034;-59
2022/01/31 05:32:47;;;;;;;10.02;3.75;;;;;;;1.86;95.84;98689.63;5011759;28;20026;-59
2022/01/31 05:35:12;;;;;;;7.40;3.45;;;;;;;1.89;95.97;98679.44;5012093;28;20029;-59
2022/01/31 05:37:38;;;;;;;4.47;2.80;;;;;;;1.99;95.72;98691.47;5010343;28;20352;-59
2022/01/31 05:40:04;;;;;;;5.55;2.95;;;;;;;1.99;95.77;98686.19;5012402;28;20522;-59
2022/01/31 05:42:30;;;;;;;5.30;2.85;;;;;;;1.98;95.58;98680.09;5011356;28;20099;-59
2022/01/31 05:44:56;;;;;;;4.85;2.35;;;;;;;1.94;95.96;98663.00;5011698;28;20048;-59
2022/01/31 05:47:21;;;;;;;4.15;2.67;;;;;;;2.05;95.37;98664.25;5011705;28;20352;-59
2022/01/31 05:49:47;;;;;;;6.90;3.03;;;;;;;2.01;95.36;98669.13;5012058;28;20394;-59
2022/01/31 05:52:13;;;;;;;4.88;2.47;;;;;;;1.97;95.78;98664.41;5011400;28;20064;-59
2022/01/31 05:54:39;;;;;;;7.07;2.40;;;;;;;2.06;95.14;98666.69;5011325;28;20041;-59
2022/01/31 05:57:05;;;;;;;4.05;2.20;;;;;;;2.06;95.03;98661.38;5012003;28;20093;-59
2022/01/31 05:59:30;;;;;;;3.85;2.50;;;;;;;2.09;94.84;98653.06;5011835;28;20452;-59
2022/01/31 06:01:57;;;;;;;3.63;2.10;;;;;;;2.07;95.37;98663.03;5011218;28;20380;-61
2022/01/31 06:04:24;;;;;;;5.00;2.33;;;;;;;2.18;94.77;98658.16;5011378;28;20425;-59
2022/01/31 06:06:49;;;;;;;3.17;2.10;;;;;;;2.25;95.35;98649.22;5011991;28;20026;-59
2022/01/31 06:09:14;;;;;;;3.97;2.33;;;;;;;2.20;95.04;98645.53;5009964;28;20454;-59
2022/01/31 06:11:41;;;;;;;5.57;2.38;;;;;;;2.19;94.95;98639.44;5011335;28;20041;-59
2022/01/31 06:14:10;;;;;;;4.95;2.28;;;;;;;2.11;94.64;98648.38;5011603;28;20038;-59
2022/01/31 06:16:35;;;;;;;3.60;2.10;;;;;;;1.99;95.63;98650.00;5011558;28;20202;-59
2022/01/31 06:19:01;;;;;;;4.32;2.15;;;;;;;1.91;96.10;98651.00;5010024;28;20041;-59
2022/01/31 06:21:26;;;;;;;3.70;2.22;;;;;;;1.90;96.29;98646.75;5012821;28;20025;-59
2022/01/31 06:23:52;;;;;;;2.80;2.05;;;;;;;1.83;96.34;98656.47;5014959;28;20037;-59
2022/01/31 06:26:17;;;;;;;3.13;2.15;;;;;;;1.90;96.55;98651.22;5013182;28;20036;-59
2022/01/31 06:28:43;;;;;;;4.50;2.30;;;;;;;1.97;96.03;98646.72;5014821;28;20056;-59
2022/01/31 06:31:08;;;;;;;5.75;2.38;;;;;;;1.89;95.87;98634.53;5013745;28;20449;-59
2022/01/31 06:33:34;;;;;;;6.60;2.17;;;;;;;1.93;95.46;98630.47;5014549;28;20372;-59
2022/01/31 06:36:00;;;;;;;3.83;2.28;;;;;;;1.87;95.81;98615.44;5014638;28;20483;-60
2022/01/31 06:38:25;;;;;;;5.20;2.45;;;;;;;2.03;95.86;98629.28;5013239;28;20037;-59
2022/01/31 06:40:51;;;;;;;5.50;2.45;;;;;;;2.15;94.44;98632.94;5014675;28;20062;-59
2022/01/31 06:43:16;;;;;;;3.85;2.47;;;;;;;2.32;94.45;98644.75;5014223;28;20050;-60
2022/01/31 06:45:42;;;;;;;4.68;2.35;;;;;;;2.33;94.71;98654.31;5015032;28;20384;-58
2022/01/31 06:48:07;;;;;;;7.57;2.55;;;;;;;2.32;95.18;98654.50;5014133;28;20394;-58
2022/01/31 06:50:33;;;;;;;7.38;2.83;;;;;;;2.27;95.96;98652.47;5014319;28;20026;-58
2022/01/31 06:53:00;;;;;;;6.05;2.75;;;;;;;2.32;95.91;98651.84;5014487;28;20029;-59
2022/01/31 06:55:28;;;;;;;5.43;2.72;;;;;;;2.34;95.24;98641.88;5014332;28;20026;-60
2022/01/31 06:57:53;;;;;;;4.47;2.35;;;;;;;2.28;94.75;98648.81;5014312;28;20084;-57
2022/01/31 07:00:19;;;;;;;58.28;30.45;;;;;;;2.22;95.51;98647.00;5014351;28;20041;-60
2022/01/31 07:02:45;;;;;;;44.72;23.20;;;;;;;2.23;95.38;98642.50;5013775;28;20029;-60
2022/01/31 07:05:12;;;;;;;31.38;16.80;;;;;;;2.25;96.70;98636.00;5013847;28;20200;-59
2022/01/31 07:07:38;;;;;;;33.35;18.85;;;;;;;2.29;95.93;98617.88;5013927;28;20554;-59
2022/01/31 07:10:05;;;;;;;6.30;2.70;;;;;;;2.29;95.40;98621.34;5014455;28;20022;-60
2022/01/31 07:12:33;;;;;;;8.90;3.97;;;;;;;2.35;95.67;98617.88;5014797;28;20026;-60
2022/01/31 07:14:59;;;;;;;7.30;4.35;;;;;;;2.58;93.85;98612.16;5012960;28;20048;-59
2022/01/31 07:17:24;;;;;;;26.15;10.57;;;;;;;2.69;93.57;98613.34;5012748;28;20133;-59
2022/01/31 07:19:50;;;;;;;11.90;5.88;;;;;;;2.70;93.06;98615.00;5013972;28;20037;-59
2022/01/31 07:22:18;;;;;;;29.02;11.20;;;;;;;2.79;93.35;98599.69;5013888;28;20034;-59
2022/01/31 07:25:01;;;;;;;13.25;5.78;;;;;;;2.90;92.20;98600.91;5013781;28;20085;-59
2022/01/31 07:27:26;;;;;;;16.85;8.63;;;;;;;2.90;92.23;98604.38;5013756;28;20038;-60
2022/01/31 07:29:52;;;;;;;14.10;6.15;;;;;;;2.91;92.27;98594.59;5013700;28;20042;-60
2022/01/31 07:32:19;;;;;;;15.13;6.80;;;;;;;2.91;92.79;98584.00;5013001;28;20026;-58
2022/01/31 07:34:46;;;;;;;13.23;4.88;;;;;;;2.82;92.64;98580.75;5013514;28;20111;-60
2022/01/31 07:37:11;;;;;;;8.30;2.60;;;;;;;2.81;92.71;98590.53;5012360;28;20032;-58
2022/01/31 07:39:41;;;;;;;45.35;19.75;;;;;;;2.93;91.48;98592.56;5013727;28;20029;-60
2022/01/31 07:42:06;;;;;;;16.75;4.93;;;;;;;3.08;91.16;98584.34;5013616;28;20123;-60
2022/01/31 07:44:32;;;;;;;8.35;3.00;;;;;;;3.09;90.41;98572.72;5014209;28;20448;-60
2022/01/31 07:46:57;;;;;;;15.93;4.63;;;;;;;3.14;90.68;98573.72;5013149;28;20032;-59
2022/01/31 07:49:23;;;;;;;23.10;7.75;;;;;;;3.11;89.88;98579.44;5013178;28;20037;-60
2022/01/31 07:51:49;;;;;;;26.30;8.55;;;;;;;3.12;89.71;98578.44;5013237;28;20026;-60
2022/01/31 07:54:14;;;;;;;10.60;4.13;;;;;;;3.17;90.27;98573.31;5013218;28;20030;-59
2022/01/31 07:56:40;;;;;;;7.25;2.25;;;;;;;3.00;91.40;98572.97;5013626;28;20084;-60
2022/01/31 07:59:05;;;;;;;11.18;4.75;;;;;;;2.74;93.23;98576.50;5012889;28;20448;-60
2022/01/31 08:01:31;;;;;;;9.43;4.53;;;;;;;2.90;93.45;98579.75;5012896;28;20041;-60
2022/01/31 08:03:56;;;;;;;10.80;3.25;;;;;;;2.87;92.85;98580.13;5012789;28;20030;-60
2022/01/31 08:06:22;;;;;;;6.88;3.15;;;;;;;2.87;92.85;98593.38;5011749;28;20088;-59
2022/01/31 08:08:47;;;;;;;8.27;3.50;;;;;;;2.83;92.81;98589.53;5012965;28;20468;-59
2022/01/31 08:11:14;;;;;;;20.73;11.80;;;;;;;2.89;93.22;98588.69;5012743;28;20369;-60
2022/01/31 08:13:39;;;;;;;19.77;9.20;;;;;;;2.79;94.08;98592.56;5012855;28;20040;-60
2022/01/31 08:18:34;;;;;;;12.32;4.57;;;;;;;2.89;94.23;98586.03;5012633;28;20022;-60
2022/01/31 08:21:00;;;;;;;19.77;4.93;;;;;;;2.76;94.52;98595.63;5012751;28;20113;-60
2022/01/31 08:23:25;;;;;;;12.02;3.03;;;;;;;2.75;94.61;98580.78;5012827;28;20026;-60
2022/01/31 08:25:51;;;;;;;10.82;3.78;;;;;;;2.79;93.79;98581.19;5012296;28;20440;-60
2022/01/31 08:28:17;;;;;;;10.75;4.75;;;;;;;2.81;93.75;98582.59;5012021;28;20419;-60
2022/01/31 08:30:58;;;;;;;13.85;4.20;;;;;;;2.84;94.24;98591.16;5012727;28;20050;-60
2022/01/31 08:33:44;;;;;;;;;;;;;;;2.85;93.95;98587.50;5011742;28;20149;-58
2022/01/31 08:36:10;;;;;;;11.70;5.93;;;;;;;2.83;94.15;98592.19;5012705;28;19921;-59
2022/01/31 08:38:36;;;;;;;11.77;4.43;;;;;;;2.86;94.48;98599.69;5011404;28;20034;-59
2022/01/31 08:41:01;;;;;;;13.48;5.60;;;;;;;2.89;94.24;98594.78;5012496;28;20037;-59
2022/01/31 08:43:27;;;;;;;6.22;2.67;;;;;;;2.91;93.95;98591.94;5011425;28;20145;-60
2022/01/31 08:45:55;;;;;;;8.43;3.80;;;;;;;2.91;93.92;98595.41;5012296;28;20030;-59
2022/01/31 08:48:21;;;;;;;12.55;4.15;;;;;;;2.95;94.56;98591.31;5012705;28;20030;-60
2022/01/31 08:50:46;;;;;;;12.27;2.95;;;;;;;3.05;94.04;98590.88;5012604;28;20115;-59
2022/01/31 08:53:12;;;;;;;8.35;3.13;;;;;;;2.92;93.62;98583.81;5012333;28;20349;-59
2022/01/31 08:55:37;;;;;;;16.13;5.70;;;;;;;2.93;94.03;98581.97;5012202;28;20026;-60
2022/01/31 08:58:05;;;;;;;13.60;3.38;;;;;;;2.97;93.64;98583.16;5012401;28;20018;-59
2022/01/31 09:00:34;;;;;;;14.07;8.27;;;;;;;3.00;93.72;98577.47;5012203;28;20149;-60
2022/01/31 09:05:55;;;;;;;10.65;3.53;;;;;;;3.03;92.61;98574.41;4995758;28;20044;-58
2022/01/31 09:08:21;;;;;;;13.70;3.70;;;;;;;3.16;92.00;98571.69;5012597;28;20117;-58
2022/01/31 09:10:46;;;;;;;9.23;2.33;;;;;;;3.23;91.20;98591.00;5011894;28;20434;-58
2022/01/31 09:13:17;;;;;;;8.80;2.25;;;;;;;3.28;91.07;98594.88;5011773;28;20026;-58
2022/01/31 09:15:42;;;;;;;5.80;1.83;;;;;;;3.26;90.32;98587.13;5010591;28;20129;-60
2022/01/31 09:18:07;;;;;;;10.05;4.28;;;;;;;3.36;88.98;98573.44;5012091;28;20026;-60
2022/01/31 09:20:33;;;;;;;11.07;3.70;;;;;;;3.43;88.84;98592.75;5011832;28;20044;-58
2022/01/31 09:22:58;;;;;;;5.22;2.50;;;;;;;3.40;88.70;98586.03;5011976;28;20029;-60
2022/01/31 09:25:27;;;;;;;7.32;2.05;;;;;;;3.51;88.43;98591.69;5012288;28;20096;-60
2022/01/31 09:27:52;;;;;;;5.43;1.85;;;;;;;3.44;89.46;98592.56;5012079;28;20121;-60
2022/01/31 09:30:20;;;;;;;9.13;1.67;;;;;;;3.46;89.21;98595.78;5012264;28;20041;-57
2022/01/31 09:32:46;;;;;;;1.70;1.33;;;;;;;3.48;89.05;98590.28;5010777;28;20093;-59
2022/01/31 09:35:11;;;;;;;3.13;1.58;;;;;;;3.39;90.56;98596.84;5010453;28;20472;-60
2022/01/31 09:37:37;;;;;;;5.93;2.00;;;;;;;3.41;90.88;98600.09;5011994;28;20526;-60
2022/01/31 09:40:04;;;;;;;22.98;10.35;;;;;;;3.30;90.26;98591.00;5011739;28;20022;-59
2022/01/31 09:42:40;;;;;;;11.43;5.88;;;;;;;3.35;90.43;98601.75;5010352;28;20089;-60
2022/01/31 09:50:22;;;;;;;5.00;2.15;;;;;;;3.39;90.40;98586.25;5012009;28;20024;-59
2022/01/31 09:52:48;;;;;;;4.57;2.38;;;;;;;3.36;90.61;98586.69;5012112;28;20037;-59
2022/01/31 09:55:14;;;;;;;7.22;3.05;;;;;;;3.35;90.62;98569.16;5012714;28;20457;-59
2022/01/31 09:57:39;;;;;;;9.68;4.93;;;;;;;3.32;90.13;98567.75;5016381;28;20107;-59
2022/01/31 10:00:06;;;;;;;6.78;2.50;;;;;;;3.38;90.31;98566.09;5015604;28;20403;-59
2022/01/31 10:02:31;;;;;;;4.40;1.75;;;;;;;3.32;89.63;98572.22;5015570;28;20036;-59
2022/01/31 10:04:57;;;;;;;2.25;1.40;;;;;;;3.40;88.82;98572.00;5015157;28;20034;-59
2022/01/31 10:07:23;;;;;;;4.10;2.10;;;;;;;3.45;89.11;98545.69;5013906;28;20145;-58
2022/01/31 10:09:49;;;;;;;5.90;1.92;;;;;;;3.53;88.41;98553.38;5015655;28;20100;-58
2022/01/31 10:17:36;;;;;;;4.80;2.42;;;;;;;3.56;87.28;98549.47;5014939;28;20095;-58
2022/01/31 10:20:18;;;;;;;7.47;3.55;;;;;;;3.50;87.35;98558.28;5015097;28;20034;-59
2022/01/31 10:22:43;;;;;;;12.85;4.20;;;;;;;3.44;87.47;98550.16;5015459;28;20404;-59
2022/01/31 10:25:14;;;;;;;6.20;2.42;;;;;;;3.55;86.74;98553.16;5013404;28;20054;-59
2022/01/31 10:27:39;;;;;;;;;;;;;;;3.68;86.93;98553.88;5015634;28;20088;-59
2022/01/31 10:30:06;;;;;;;5.90;2.10;;;;;;;3.64;87.38;98554.50;5013396;28;20500;-59
2022/01/31 10:32:35;;;;;;;7.30;2.70;;;;;;;3.71;86.45;98554.47;5014704;28;20034;-59
2022/01/31 10:35:06;;;;;;;5.25;2.15;;;;;;;3.80;86.69;98550.53;5014597;28;20029;-59
2022/01/31 10:37:34;;;;;;;6.20;3.13;;;;;;;3.75;85.58;98558.34;5014902;28;20034;-59
2022/01/31 10:45:39;;;;;;;3.92;2.33;;;;;;;3.73;85.42;98560.38;5014388;28;20172;-59
2022/01/31 10:54:17;;;;;;;7.43;3.22;;;;;;;3.53;87.56;98555.22;5013372;28;20100;-58
2022/01/31 10:56:45;;;;;;;6.22;2.50;;;;;;;3.55;87.36;98559.25;5012784;28;20022;-58
2022/01/31 10:59:15;;;;;;;5.40;2.75;;;;;;;3.49;87.11;98568.06;5014387;28;20026;-58
2022/01/31 11:01:43;;;;;;;4.18;2.40;;;;;;;3.49;87.08;98570.69;5013972;28;20057;-59
2022/01/31 11:04:14;;;;;;;8.85;4.07;;;;;;;3.66;85.07;98566.53;5013562;28;20447;-59
2022/01/31 11:06:40;;;;;;;5.15;3.08;;;;;;;3.61;86.35;98554.94;5012946;28;20022;-59
2022/01/31 11:09:10;;;;;;;3.92;2.00;;;;;;;3.66;85.25;98553.28;5013998;28;20065;-59
2022/01/31 11:11:41;;;;;;;4.57;2.20;;;;;;;3.70;85.27;98550.22;5014110;28;20037;-59
2022/01/31 11:14:07;;;;;;;4.72;1.52;;;;;;;3.64;85.81;98551.88;5014123;28;20445;-59
2022/01/31 11:16:32;;;;;;;10.68;4.78;;;;;;;3.71;85.92;98562.44;5014024;28;20022;-59
2022/01/31 11:19:01;;;;;;;5.93;2.97;;;;;;;3.58;86.22;98547.44;5014034;28;20022;-59
2022/01/31 11:21:29;;;;;;;6.35;2.83;;;;;;;3.66;85.98;98557.75;5012504;28;20097;-59
2022/01/31 11:24:01;;;;;;;10.63;4.68;;;;;;;3.62;85.59;98552.09;5012262;28;20547;-59
2022/01/31 11:26:26;;;;;;;6.68;3.65;;;;;;;3.61;86.30;98563.69;5013708;28;20022;-59
2022/01/31 11:28:52;;;;;;;5.18;2.35;;;;;;;3.67;86.17;98564.72;5012272;28;20030;-62
2022/01/31 11:31:18;;;;;;;6.15;3.08;;;;;;;3.66;85.58;98566.53;5013498;28;20080;-59
2022/01/31 11:33:43;;;;;;;7.38;3.30;;;;;;;3.53;86.26;98565.81;5013318;28;20072;-59
2022/01/31 11:36:08;;;;;;;9.95;3.67;;;;;;;3.49;87.58;98576.00;5012469;28;20029;-59
2022/01/31 11:38:34;;;;;;;10.00;4.30;;;;;;;3.44;87.08;98579.31;5012401;28;20025;-58
2022/01/31 11:41:03;;;;;;;15.82;7.00;;;;;;;3.40;87.55;98572.81;5012385;28;20026;-59
2022/01/31 11:43:29;;;;;;;7.03;4.15;;;;;;;3.45;87.52;98580.94;5012872;28;20042;-59
2022/01/31 11:45:55;;;;;;;3.35;2.00;;;;;;;3.36;88.66;98587.47;5012619;28;20029;-60
2022/01/31 11:48:22;;;;;;;3.63;2.20;;;;;;;3.32;87.78;98585.47;5011854;28;20452;-60
2022/01/31 11:50:50;;;;;;;5.47;3.22;;;;;;;3.43;88.53;98593.56;5013609;28;20050;-60
2022/01/31 11:53:25;;;;;;;3.55;1.80;;;;;;;3.44;88.45;98592.56;5013783;28;20022;-59
2022/01/31 11:55:50;;;;;;;3.60;2.05;;;;;;;3.40;88.42;98596.66;5012615;28;20034;-60
2022/01/31 11:58:17;;;;;;;6.30;2.50;;;;;;;3.45;88.99;98596.00;5013247;28;20079;-60
2022/01/31 12:00:44;;;;;;;2.72;1.45;;;;;;;3.59;87.41;98592.25;5012561;28;20029;-60
2022/01/31 12:03:11;;;;;;;8.65;3.95;;;;;;;3.66;88.76;98577.13;5012357;28;20030;-60
2022/01/31 12:05:37;;;;;;;7.47;3.80;;;;;;;3.60;87.88;98595.72;5011735;28;20423;-60
2022/01/31 12:08:33;;;;;;;7.43;2.47;;;;;;;3.66;88.19;98581.63;5012977;28;20391;-59
2022/01/31 12:11:07;;;;;;;6.40;1.98;;;;;;;3.62;88.43;98591.00;5014572;28;20030;-60